sensor_id;sensor_type;location;lat;lon;timestamp;temperature;humidity
3478;DHT22;37937;61.490;23.506;2024-02-26T00:02:13;1.40;99.90
3478;DHT22;37937;61.490;23.506;2024-02-26T00:04:39;1.30;99.90
3478;DHT22;37937;61.490;23.506;2024-02-26T00:07:05;1.30;99.90
3478;DHT22;37937;61.490;23.506;2024-02-26T00:09:30;1.40;99.90
3478;DHT22;37937;61.490;23.506;2024-02-26T00:11:56;1.40;99.90
3478;DHT22;37937;61.490;23.506;2024-02-26T00:14:23;1.40;99.90
3478;DHT22;37937;61.490;23.506;2024-02-26T00:16:48;1.40;99.90
3478;DHT22;37937;61.490;23.506;2024-02-26T00:19:14;1.40;99.90
3478;DHT22;37937;61.490;23.506;2024-02-26T00:21:40;1.40;99.90
3478;DHT22;37937;61.490;23.506;2024-02-26T00:24:06;1.40;99.90
3478;DHT22;37937;61.490;23.506;2024-02-26T00:26:32;1.40;99.90
3478;DHT22;37937;61.490;23.506;2024-02-26T00:28:57;1.40;99.90
3478;DHT22;37937;61.490;23.506;2024-02-26T00:31:23;1.40;99.90
3478;DHT22;37937;61.490;23.506;2024-02-26T00:33:48;1.40;99.90
3478;DHT22;37937;61.490;23.506;2024-02-26T00:36:14;1.30;99.90
3478;DHT22;37937;61.490;23.506;2024-02-26T00:38:39;1.40;99.90
3478;DHT22;37937;61.490;23.506;2024-02-26T00:41:06;1.30;99.90
3478;DHT22;37937;61.490;23.506;2024-02-26T00:43:31;1.30;99.90
3478;DHT22;37937;61.490;23.506;2024-02-26T00:45:57;1.30;99.90
3478;DHT22;37937;61.490;23.506;2024-02-26T00:48:22;1.30;99.90
3478;DHT22;37937;61.490;23.506;2024-02-26T00:50:51;1.30;99.90
3478;DHT22;37937;61.490;23.506;2024-02-26T00:53:16;1.30;99.90
3478;DHT22;37937;61.490;23.506;2024-02-26T00:55:42;1.40;99.90
3478;DHT22;37937;61.490;23.506;2024-02-26T00:58:07;1.40;99.90
3478;DHT22;37937;61.490;23.506;2024-02-26T01:00:33;1.30;99.90
3478;DHT22;37937;61.490;23.506;2024-02-26T01:02:59;1.40;99.90
3478;DHT22;37937;61.490;23.506;2024-02-26T01:05:25;1.40;99.90
3478;DHT22;37937;61.490;23.506;2024-02-26T01:07:50;1.30;99.90
3478;DHT22;37937;61.490;23.506;2024-02-26T01:10:16;1.40;99.90
3478;DHT22;37937;61.490;23.506;2024-02-26T01:12:42;1.30;99.90
3478;DHT22;37937;61.490;23.506;2024-02-26T01:15:07;1.40;99.90
3478;DHT22;37937;61.490;23.506;2024-02-26T01:17:33;1.30;99.90
3478;DHT22;37937;61.490;23.506;2024-02-26T01:19:59;1.30;99.90
3478;DHT22;37937;61.490;23.506;2024-02-26T01:22:24;1.30;99.90
3478;DHT22;37937;61.490;23.506;2024-02-26T01:24:50;1.30;99.90
3478;DHT22;37937;61.490;23.506;2024-02-26T01:27:15;1.20;99.90
3478;DHT22;37937;61.490;23.506;2024-02-26T01:29:41;1.20;99.90
3478;DHT22;37937;61.490;23.506;2024-02-26T01:32:07;1.20;99.90
3478;DHT22;37937;61.490;23.506;2024-02-26T01:34:32;1.20;99.90
3478;DHT22;37937;61.490;23.506;2024-02-26T01:36:58;1.20;99.90
3478;DHT22;37937;61.490;23.506;2024-02-26T01:39:23;1.20;99.90
3478;DHT22;37937;61.490;23.506;2024-02-26T01:41:49;1.20;99.90
3478;DHT22;37937;61.490;23.506;2024-02-26T01:44:14;1.10;99.90
3478;DHT22;37937;61.490;23.506;2024-02-26T01:46:40;1.20;99.90
3478;DHT22;37937;61.490;23.506;2024-02-26T01:49:06;1.20;99.90
3478;DHT22;37937;61.490;23.506;2024-02-26T01:51:32;1.20;99.90
3478;DHT22;37937;61.490;23.506;2024-02-26T01:53:58;1.20;99.90
3478;DHT22;37937;61.490;23.506;2024-02-26T01:56:25;1.20;99.90
3478;DHT22;37937;61.490;23.506;2024-02-26T01:58:55;1.20;99.90
3478;DHT22;37937;61.490;23.506;2024-02-26T02:01:22;1.20;99.90
3478;DHT22;37937;61.490;23.506;2024-02-26T02:03:49;1.20;99.90
3478;DHT22;37937;61.490;23.506;2024-02-26T02:06:15;1.20;99.90
3478;DHT22;37937;61.490;23.506;2024-02-26T02:08:41;1.20;99.90
3478;DHT22;37937;61.490;23.506;2024-02-26T02:11:07;1.20;99.90
3478;DHT22;37937;61.490;23.506;2024-02-26T02:13:33;1.10;99.90
3478;DHT22;37937;61.490;23.506;2024-02-26T02:15:58;1.10;99.90
3478;DHT22;37937;61.490;23.506;2024-02-26T02:18:24;1.10;99.90
3478;DHT22;37937;61.490;23.506;2024-02-26T02:20:49;1.10;99.90
3478;DHT22;37937;61.490;23.506;2024-02-26T02:23:15;1.20;99.90
3478;DHT22;37937;61.490;23.506;2024-02-26T02:25:40;1.10;99.90
3478;DHT22;37937;61.490;23.506;2024-02-26T02:28:06;1.10;99.90
3478;DHT22;37937;61.490;23.506;2024-02-26T02:30:31;1.10;99.90
3478;DHT22;37937;61.490;23.506;2024-02-26T02:32:58;1.10;99.90
3478;DHT22;37937;61.490;23.506;2024-02-26T02:35:24;1.10;99.90
3478;DHT22;37937;61.490;23.506;2024-02-26T02:37:51;1.10;99.90
3478;DHT22;37937;61.490;23.506;2024-02-26T02:40:17;1.10;99.90
3478;DHT22;37937;61.490;23.506;2024-02-26T02:42:43;1.00;99.90
3478;DHT22;37937;61.490;23.506;2024-02-26T02:45:08;1.00;99.90
3478;DHT22;37937;61.490;23.506;2024-02-26T02:47:37;0.90;99.90
3478;DHT22;37937;61.490;23.506;2024-02-26T02:50:03;1.00;99.90
3478;DHT22;37937;61.490;23.506;2024-02-26T02:52:28;1.00;99.90
3478;DHT22;37937;61.490;23.506;2024-02-26T02:54:54;1.00;99.90
3478;DHT22;37937;61.490;23.506;2024-02-26T02:57:19;1.00;99.90
3478;DHT22;37937;61.490;23.506;2024-02-26T02:59:45;1.00;99.90
3478;DHT22;37937;61.490;23.506;2024-02-26T03:02:11;1.00;99.90
3478;DHT22;37937;61.490;23.506;2024-02-26T03:04:37;0.90;99.90
3478;DHT22;37937;61.490;23.506;2024-02-26T03:07:03;0.90;99.90
3478;DHT22;37937;61.490;23.506;2024-02-26T03:09:28;0.90;99.90
3478;DHT22;37937;61.490;23.506;2024-02-26T03:11:54;0.90;99.90
3478;DHT22;37937;61.490;23.506;2024-02-26T03:14:20;1.00;99.90
3478;DHT22;37937;61.490;23.506;2024-02-26T03:16:45;1.00;99.90
3478;DHT22;37937;61.490;23.506;2024-02-26T03:19:11;1.00;99.90
3478;DHT22;37937;61.490;23.506;2024-02-26T03:21:39;1.00;99.90
3478;DHT22;37937;61.490;23.506;2024-02-26T03:24:05;1.00;99.90
3478;DHT22;37937;61.490;23.506;2024-02-26T03:26:30;1.00;99.90
3478;DHT22;37937;61.490;23.506;2024-02-26T03:28:56;1.00;99.90
3478;DHT22;37937;61.490;23.506;2024-02-26T03:31:22;1.00;99.90
3478;DHT22;37937;61.490;23.506;2024-02-26T03:33:48;0.90;99.90
3478;DHT22;37937;61.490;23.506;2024-02-26T03:36:14;0.90;99.90
3478;DHT22;37937;61.490;23.506;2024-02-26T03:38:39;0.90;99.90
3478;DHT22;37937;61.490;23.506;2024-02-26T03:41:05;0.90;99.90
3478;DHT22;37937;61.490;23.506;2024-02-26T03:43:31;0.90;99.90
3478;DHT22;37937;61.490;23.506;2024-02-26T03:45:57;0.90;99.90
3478;DHT22;37937;61.490;23.506;2024-02-26T03:48:22;0.90;99.90
3478;DHT22;37937;61.490;23.506;2024-02-26T03:50:48;1.00;99.90
3478;DHT22;37937;61.490;23.506;2024-02-26T03:53:13;1.00;99.90
3478;DHT22;37937;61.490;23.506;2024-02-26T03:55:39;1.00;99.90
3478;DHT22;37937;61.490;23.506;2024-02-26T03:58:07;1.00;99.90
3478;DHT22;37937;61.490;23.506;2024-02-26T04:00:32;1.00;99.90
3478;DHT22;37937;61.490;23.506;2024-02-26T04:02:58;1.00;99.90
3478;DHT22;37937;61.490;23.506;2024-02-26T04:05:23;1.10;99.90
3478;DHT22;37937;61.490;23.506;2024-02-26T04:07:49;1.10;99.90
3478;DHT22;37937;61.490;23.506;2024-02-26T04:10:14;1.00;99.90
3478;DHT22;37937;61.490;23.506;2024-02-26T04:12:40;1.10;99.90
3478;DHT22;37937;61.490;23.506;2024-02-26T04:15:09;1.10;99.90
3478;DHT22;37937;61.490;23.506;2024-02-26T04:17:35;1.00;99.90
3478;DHT22;37937;61.490;23.506;2024-02-26T04:20:01;0.90;99.90
3478;DHT22;37937;61.490;23.506;2024-02-26T04:22:27;0.90;99.90
3478;DHT22;37937;61.490;23.506;2024-02-26T04:24:52;0.90;99.90
3478;DHT22;37937;61.490;23.506;2024-02-26T04:27:18;0.90;99.90
3478;DHT22;37937;61.490;23.506;2024-02-26T04:29:43;0.90;99.90
3478;DHT22;37937;61.490;23.506;2024-02-26T04:32:09;0.90;99.90
3478;DHT22;37937;61.490;23.506;2024-02-26T04:34:34;0.90;99.90
3478;DHT22;37937;61.490;23.506;2024-02-26T04:37:00;0.90;99.90
3478;DHT22;37937;61.490;23.506;2024-02-26T04:39:25;0.90;99.90
3478;DHT22;37937;61.490;23.506;2024-02-26T04:41:51;0.90;99.90
3478;DHT22;37937;61.490;23.506;2024-02-26T04:44:16;0.90;99.90
3478;DHT22;37937;61.490;23.506;2024-02-26T04:46:42;0.90;99.90
3478;DHT22;37937;61.490;23.506;2024-02-26T04:49:07;0.90;99.90
3478;DHT22;37937;61.490;23.506;2024-02-26T04:51:33;0.90;99.90
3478;DHT22;37937;61.490;23.506;2024-02-26T04:53:59;0.90;99.90
3478;DHT22;37937;61.490;23.506;2024-02-26T04:56:24;0.90;99.90
3478;DHT22;37937;61.490;23.506;2024-02-26T04:58:50;0.90;99.90
3478;DHT22;37937;61.490;23.506;2024-02-26T05:01:15;1.00;99.90
3478;DHT22;37937;61.490;23.506;2024-02-26T05:03:42;1.00;99.90
3478;DHT22;37937;61.490;23.506;2024-02-26T05:06:08;1.00;99.90
3478;DHT22;37937;61.490;23.506;2024-02-26T05:08:34;1.00;99.90
3478;DHT22;37937;61.490;23.506;2024-02-26T05:11:01;1.00;99.90
3478;DHT22;37937;61.490;23.506;2024-02-26T05:13:28;1.00;99.90
3478;DHT22;37937;61.490;23.506;2024-02-26T05:15:53;1.00;99.90
3478;DHT22;37937;61.490;23.506;2024-02-26T05:18:19;1.10;99.90
3478;DHT22;37937;61.490;23.506;2024-02-26T05:20:45;1.10;99.90
3478;DHT22;37937;61.490;23.506;2024-02-26T05:23:10;1.10;99.90
3478;DHT22;37937;61.490;23.506;2024-02-26T05:25:36;1.10;99.90
3478;DHT22;37937;61.490;23.506;2024-02-26T05:28:01;1.10;99.90
3478;DHT22;37937;61.490;23.506;2024-02-26T05:30:27;1.10;99.90
3478;DHT22;37937;61.490;23.506;2024-02-26T05:32:53;1.10;99.90
3478;DHT22;37937;61.490;23.506;2024-02-26T05:35:19;1.10;99.90
3478;DHT22;37937;61.490;23.506;2024-02-26T05:37:44;1.10;99.90
3478;DHT22;37937;61.490;23.506;2024-02-26T05:40:10;1.10;99.90
3478;DHT22;37937;61.490;23.506;2024-02-26T05:42:36;1.10;99.90
3478;DHT22;37937;61.490;23.506;2024-02-26T05:45:02;1.10;99.90
3478;DHT22;37937;61.490;23.506;2024-02-26T05:47:34;1.10;99.90
3478;DHT22;37937;61.490;23.506;2024-02-26T05:49:59;1.10;99.90
3478;DHT22;37937;61.490;23.506;2024-02-26T05:52:26;1.10;99.90
3478;DHT22;37937;61.490;23.506;2024-02-26T05:54:53;1.10;99.90
3478;DHT22;37937;61.490;23.506;2024-02-26T05:57:18;1.10;99.90
3478;DHT22;37937;61.490;23.506;2024-02-26T05:59:44;1.10;99.90
3478;DHT22;37937;61.490;23.506;2024-02-26T06:02:09;1.10;99.90
3478;DHT22;37937;61.490;23.506;2024-02-26T06:04:35;1.10;99.90
3478;DHT22;37937;61.490;23.506;2024-02-26T06:07:00;1.00;99.90
3478;DHT22;37937;61.490;23.506;2024-02-26T06:09:26;1.00;99.90
3478;DHT22;37937;61.490;23.506;2024-02-26T06:11:51;1.00;99.90
3478;DHT22;37937;61.490;23.506;2024-02-26T06:14:17;1.00;99.90
3478;DHT22;37937;61.490;23.506;2024-02-26T06:16:44;1.10;99.90
3478;DHT22;37937;61.490;23.506;2024-02-26T06:19:09;1.10;99.90
3478;DHT22;37937;61.490;23.506;2024-02-26T06:21:35;1.10;99.90
3478;DHT22;37937;61.490;23.506;2024-02-26T06:24:01;1.10;99.90
3478;DHT22;37937;61.490;23.506;2024-02-26T06:26:26;1.10;99.90
3478;DHT22;37937;61.490;23.506;2024-02-26T06:28:54;1.10;99.90
3478;DHT22;37937;61.490;23.506;2024-02-26T06:31:21;1.10;99.90
3478;DHT22;37937;61.490;23.506;2024-02-26T06:33:48;1.00;99.90
3478;DHT22;37937;61.490;23.506;2024-02-26T06:36:15;1.10;99.90
3478;DHT22;37937;61.490;23.506;2024-02-26T06:38:40;1.10;99.90
3478;DHT22;37937;61.490;23.506;2024-02-26T06:41:06;1.10;99.90
3478;DHT22;37937;61.490;23.506;2024-02-26T06:43:31;1.10;99.90
3478;DHT22;37937;61.490;23.506;2024-02-26T06:45:57;1.10;99.90
3478;DHT22;37937;61.490;23.506;2024-02-26T06:48:23;1.10;99.90
3478;DHT22;37937;61.490;23.506;2024-02-26T06:50:48;1.10;99.90
3478;DHT22;37937;61.490;23.506;2024-02-26T06:53:14;1.00;99.90
3478;DHT22;37937;61.490;23.506;2024-02-26T06:55:40;1.00;99.90
3478;DHT22;37937;61.490;23.506;2024-02-26T06:58:06;1.00;99.90
3478;DHT22;37937;61.490;23.506;2024-02-26T07:00:31;1.00;99.90
3478;DHT22;37937;61.490;23.506;2024-02-26T07:02:57;1.10;99.90
3478;DHT22;37937;61.490;23.506;2024-02-26T07:05:23;1.00;99.90
3478;DHT22;37937;61.490;23.506;2024-02-26T07:07:49;1.00;99.90
3478;DHT22;37937;61.490;23.506;2024-02-26T07:10:14;0.90;99.90
3478;DHT22;37937;61.490;23.506;2024-02-26T07:12:40;0.90;99.90
3478;DHT22;37937;61.490;23.506;2024-02-26T07:15:05;0.90;99.90
3478;DHT22;37937;61.490;23.506;2024-02-26T07:17:33;0.90;99.90
3478;DHT22;37937;61.490;23.506;2024-02-26T07:19:59;0.90;99.90
3478;DHT22;37937;61.490;23.506;2024-02-26T07:22:25;0.90;99.90
3478;DHT22;37937;61.490;23.506;2024-02-26T07:24:50;0.90;99.90
3478;DHT22;37937;61.490;23.506;2024-02-26T07:27:17;0.90;99.90
3478;DHT22;37937;61.490;23.506;2024-02-26T07:29:43;1.00;99.90
3478;DHT22;37937;61.490;23.506;2024-02-26T07:32:09;1.00;99.90
3478;DHT22;37937;61.490;23.506;2024-02-26T07:34:35;1.00;99.90
3478;DHT22;37937;61.490;23.506;2024-02-26T07:37:02;1.00;99.90
3478;DHT22;37937;61.490;23.506;2024-02-26T07:39:28;1.10;99.90
3478;DHT22;37937;61.490;23.506;2024-02-26T07:41:54;1.00;99.90
3478;DHT22;37937;61.490;23.506;2024-02-26T07:44:19;1.10;99.90
3478;DHT22;37937;61.490;23.506;2024-02-26T07:46:45;1.00;99.90
3478;DHT22;37937;61.490;23.506;2024-02-26T07:49:10;1.10;99.90
3478;DHT22;37937;61.490;23.506;2024-02-26T07:51:36;1.10;99.90
3478;DHT22;37937;61.490;23.506;2024-02-26T07:54:02;1.10;99.90
3478;DHT22;37937;61.490;23.506;2024-02-26T07:56:27;1.20;99.90
3478;DHT22;37937;61.490;23.506;2024-02-26T07:58:53;1.10;99.90
3478;DHT22;37937;61.490;23.506;2024-02-26T08:01:18;1.30;99.90
3478;DHT22;37937;61.490;23.506;2024-02-26T08:03:44;1.30;99.90
3478;DHT22;37937;61.490;23.506;2024-02-26T08:06:09;1.40;99.90
3478;DHT22;37937;61.490;23.506;2024-02-26T08:08:35;1.40;99.90
3478;DHT22;37937;61.490;23.506;2024-02-26T08:11:00;1.40;99.90
3478;DHT22;37937;61.490;23.506;2024-02-26T08:13:26;1.40;99.90
3478;DHT22;37937;61.490;23.506;2024-02-26T08:15:52;1.40;99.90
3478;DHT22;37937;61.490;23.506;2024-02-26T08:18:17;1.50;99.90
3478;DHT22;37937;61.490;23.506;2024-02-26T08:20:43;1.50;99.90
3478;DHT22;37937;61.490;23.506;2024-02-26T08:23:09;1.50;99.90
3478;DHT22;37937;61.490;23.506;2024-02-26T08:25:34;1.50;99.90
3478;DHT22;37937;61.490;23.506;2024-02-26T08:28:00;1.40;99.90
3478;DHT22;37937;61.490;23.506;2024-02-26T08:30:26;1.30;99.90
3478;DHT22;37937;61.490;23.506;2024-02-26T08:32:51;1.20;99.90
3478;DHT22;37937;61.490;23.506;2024-02-26T08:35:17;1.30;99.90
3478;DHT22;37937;61.490;23.506;2024-02-26T08:37:46;1.30;99.90
3478;DHT22;37937;61.490;23.506;2024-02-26T08:40:12;1.30;99.90
3478;DHT22;37937;61.490;23.506;2024-02-26T08:42:38;1.30;99.90
3478;DHT22;37937;61.490;23.506;2024-02-26T08:45:03;1.30;99.90
3478;DHT22;37937;61.490;23.506;2024-02-26T08:47:29;1.20;99.90
3478;DHT22;37937;61.490;23.506;2024-02-26T08:49:55;1.10;99.90
3478;DHT22;37937;61.490;23.506;2024-02-26T08:52:21;1.10;99.90
3478;DHT22;37937;61.490;23.506;2024-02-26T08:54:49;1.20;99.90
3478;DHT22;37937;61.490;23.506;2024-02-26T08:57:15;1.30;99.90
3478;DHT22;37937;61.490;23.506;2024-02-26T08:59:41;1.30;99.90
3478;DHT22;37937;61.490;23.506;2024-02-26T09:02:07;1.20;99.90
3478;DHT22;37937;61.490;23.506;2024-02-26T09:04:33;1.20;99.90
3478;DHT22;37937;61.490;23.506;2024-02-26T09:06:59;1.30;99.90
3478;DHT22;37937;61.490;23.506;2024-02-26T09:09:25;1.30;99.90
3478;DHT22;37937;61.490;23.506;2024-02-26T09:11:51;1.20;99.90
3478;DHT22;37937;61.490;23.506;2024-02-26T09:14:17;1.20;99.90
3478;DHT22;37937;61.490;23.506;2024-02-26T09:16:43;1.10;99.90
3478;DHT22;37937;61.490;23.506;2024-02-26T09:19:08;1.20;99.90
3478;DHT22;37937;61.490;23.506;2024-02-26T09:21:34;1.20;99.90
3478;DHT22;37937;61.490;23.506;2024-02-26T09:24:00;1.20;99.90
3478;DHT22;37937;61.490;23.506;2024-02-26T09:26:25;1.20;99.90
3478;DHT22;37937;61.490;23.506;2024-02-26T09:28:51;1.00;99.90
3478;DHT22;37937;61.490;23.506;2024-02-26T09:31:17;1.00;99.90
3478;DHT22;37937;61.490;23.506;2024-02-26T09:33:43;1.10;99.90
3478;DHT22;37937;61.490;23.506;2024-02-26T09:36:09;1.20;99.90
3478;DHT22;37937;61.490;23.506;2024-02-26T09:38:36;1.20;99.90
3478;DHT22;37937;61.490;23.506;2024-02-26T09:41:04;1.20;99.90
3478;DHT22;37937;61.490;23.506;2024-02-26T09:43:34;1.20;99.90
3478;DHT22;37937;61.490;23.506;2024-02-26T09:46:00;1.10;99.90
3478;DHT22;37937;61.490;23.506;2024-02-26T09:48:25;1.20;99.90
3478;DHT22;37937;61.490;23.506;2024-02-26T09:50:51;1.20;99.90
3478;DHT22;37937;61.490;23.506;2024-02-26T09:53:17;1.20;99.90
3478;DHT22;37937;61.490;23.506;2024-02-26T09:55:43;1.30;99.90
3478;DHT22;37937;61.490;23.506;2024-02-26T09:58:09;1.30;99.90
3478;DHT22;37937;61.490;23.506;2024-02-26T10:00:37;1.30;99.90
3478;DHT22;37937;61.490;23.506;2024-02-26T10:03:06;1.40;99.90
3478;DHT22;37937;61.490;23.506;2024-02-26T10:05:33;1.50;99.90
3478;DHT22;37937;61.490;23.506;2024-02-26T10:08:00;1.60;99.90
3478;DHT22;37937;61.490;23.506;2024-02-26T10:10:28;1.60;99.90
3478;DHT22;37937;61.490;23.506;2024-02-26T10:12:54;1.70;99.90
3478;DHT22;37937;61.490;23.506;2024-02-26T10:15:19;1.80;99.90
3478;DHT22;37937;61.490;23.506;2024-02-26T10:17:45;1.80;99.90
3478;DHT22;37937;61.490;23.506;2024-02-26T10:20:14;1.80;99.90
3478;DHT22;37937;61.490;23.506;2024-02-26T10:22:44;1.80;99.90
3478;DHT22;37937;61.490;23.506;2024-02-26T10:25:10;1.70;99.90
3478;DHT22;37937;61.490;23.506;2024-02-26T10:27:35;1.80;99.90
3478;DHT22;37937;61.490;23.506;2024-02-26T10:30:04;1.70;99.90
3478;DHT22;37937;61.490;23.506;2024-02-26T10:32:39;1.80;99.90
3478;DHT22;37937;61.490;23.506;2024-02-26T10:35:08;1.80;99.90
3478;DHT22;37937;61.490;23.506;2024-02-26T10:37:33;1.80;99.90
3478;DHT22;37937;61.490;23.506;2024-02-26T10:39:59;1.80;99.90
3478;DHT22;37937;61.490;23.506;2024-02-26T10:42:25;1.70;99.90
3478;DHT22;37937;61.490;23.506;2024-02-26T10:44:51;1.90;99.90
3478;DHT22;37937;61.490;23.506;2024-02-26T10:47:16;1.90;99.90
3478;DHT22;37937;61.490;23.506;2024-02-26T10:49:45;1.80;99.90
3478;DHT22;37937;61.490;23.506;2024-02-26T10:52:10;1.80;99.90
3478;DHT22;37937;61.490;23.506;2024-02-26T10:54:36;1.90;99.90
3478;DHT22;37937;61.490;23.506;2024-02-26T10:57:04;2.00;99.90
3478;DHT22;37937;61.490;23.506;2024-02-26T10:59:30;2.10;99.90
3478;DHT22;37937;61.490;23.506;2024-02-26T11:01:58;2.10;99.90
3478;DHT22;37937;61.490;23.506;2024-02-26T11:04:24;2.10;99.90
3478;DHT22;37937;61.490;23.506;2024-02-26T11:06:52;2.20;99.90
3478;DHT22;37937;61.490;23.506;2024-02-26T11:09:21;2.20;99.90
3478;DHT22;37937;61.490;23.506;2024-02-26T11:11:47;2.30;99.90
3478;DHT22;37937;61.490;23.506;2024-02-26T11:14:13;2.40;99.90
3478;DHT22;37937;61.490;23.506;2024-02-26T11:16:39;2.30;99.90
3478;DHT22;37937;61.490;23.506;2024-02-26T11:19:06;2.30;99.90
3478;DHT22;37937;61.490;23.506;2024-02-26T11:21:34;2.50;99.90
3478;DHT22;37937;61.490;23.506;2024-02-26T11:24:13;2.60;99.90
3478;DHT22;37937;61.490;23.506;2024-02-26T11:26:43;2.50;99.90
3478;DHT22;37937;61.490;23.506;2024-02-26T11:29:14;2.50;99.90
3478;DHT22;37937;61.490;23.506;2024-02-26T11:31:41;2.50;99.90
3478;DHT22;37937;61.490;23.506;2024-02-26T11:34:07;2.50;99.90
3478;DHT22;37937;61.490;23.506;2024-02-26T11:36:34;2.40;99.90
3478;DHT22;37937;61.490;23.506;2024-02-26T11:38:59;2.30;99.90
3478;DHT22;37937;61.490;23.506;2024-02-26T11:41:25;2.30;99.90
3478;DHT22;37937;61.490;23.506;2024-02-26T11:43:51;2.30;99.90
3478;DHT22;37937;61.490;23.506;2024-02-26T11:46:24;2.30;99.90
3478;DHT22;37937;61.490;23.506;2024-02-26T11:48:50;2.30;99.90
3478;DHT22;37937;61.490;23.506;2024-02-26T11:51:16;2.40;99.90
3478;DHT22;37937;61.490;23.506;2024-02-26T11:53:47;2.30;99.90
3478;DHT22;37937;61.490;23.506;2024-02-26T11:58:42;2.30;99.90
3478;DHT22;37937;61.490;23.506;2024-02-26T12:04:18;2.30;99.90
3478;DHT22;37937;61.490;23.506;2024-02-26T12:06:45;2.40;99.90
3478;DHT22;37937;61.490;23.506;2024-02-26T12:09:11;2.40;99.90
3478;DHT22;37937;61.490;23.506;2024-02-26T12:11:38;2.40;99.90
3478;DHT22;37937;61.490;23.506;2024-02-26T12:14:08;2.40;99.90
3478;DHT22;37937;61.490;23.506;2024-02-26T12:16:35;2.40;99.90
3478;DHT22;37937;61.490;23.506;2024-02-26T12:19:03;2.40;99.90
3478;DHT22;37937;61.490;23.506;2024-02-26T12:21:29;2.30;99.90
3478;DHT22;37937;61.490;23.506;2024-02-26T12:23:54;2.40;99.90
3478;DHT22;37937;61.490;23.506;2024-02-26T12:26:20;2.40;99.90
3478;DHT22;37937;61.490;23.506;2024-02-26T12:28:46;2.30;99.90
3478;DHT22;37937;61.490;23.506;2024-02-26T12:31:11;2.40;99.90
3478;DHT22;37937;61.490;23.506;2024-02-26T12:33:37;2.40;99.90
3478;DHT22;37937;61.490;23.506;2024-02-26T12:36:03;2.30;99.90
3478;DHT22;37937;61.490;23.506;2024-02-26T12:38:28;2.40;99.90
3478;DHT22;37937;61.490;23.506;2024-02-26T12:40:55;2.40;99.90
3478;DHT22;37937;61.490;23.506;2024-02-26T12:43:21;2.30;99.90
3478;DHT22;37937;61.490;23.506;2024-02-26T12:45:46;2.30;99.90
3478;DHT22;37937;61.490;23.506;2024-02-26T12:48:12;2.50;99.90
3478;DHT22;37937;61.490;23.506;2024-02-26T12:50:38;2.40;99.90
3478;DHT22;37937;61.490;23.506;2024-02-26T12:53:04;2.40;99.90
3478;DHT22;37937;61.490;23.506;2024-02-26T12:55:30;2.40;99.90
3478;DHT22;37937;61.490;23.506;2024-02-26T12:57:59;2.50;99.90
3478;DHT22;37937;61.490;23.506;2024-02-26T13:00:25;2.40;99.90
3478;DHT22;37937;61.490;23.506;2024-02-26T13:02:51;2.50;99.90
3478;DHT22;37937;61.490;23.506;2024-02-26T13:05:18;2.50;99.90
3478;DHT22;37937;61.490;23.506;2024-02-26T13:07:45;2.50;99.90
3478;DHT22;37937;61.490;23.506;2024-02-26T13:10:12;2.40;99.90
3478;DHT22;37937;61.490;23.506;2024-02-26T13:12:45;2.50;99.90
3478;DHT22;37937;61.490;23.506;2024-02-26T13:15:14;2.40;99.90
3478;DHT22;37937;61.490;23.506;2024-02-26T13:17:39;2.40;99.90
3478;DHT22;37937;61.490;23.506;2024-02-26T13:20:05;2.40;99.90
3478;DHT22;37937;61.490;23.506;2024-02-26T13:22:31;2.40;99.90
3478;DHT22;37937;61.490;23.506;2024-02-26T13:24:59;2.40;99.90
3478;DHT22;37937;61.490;23.506;2024-02-26T13:27:25;2.50;99.90
3478;DHT22;37937;61.490;23.506;2024-02-26T13:30:04;2.50;99.90
3478;DHT22;37937;61.490;23.506;2024-02-26T13:32:33;2.50;99.90
3478;DHT22;37937;61.490;23.506;2024-02-26T13:35:09;2.40;99.90
3478;DHT22;37937;61.490;23.506;2024-02-26T13:37:38;2.20;99.90
3478;DHT22;37937;61.490;23.506;2024-02-26T13:40:07;2.20;99.90
3478;DHT22;37937;61.490;23.506;2024-02-26T13:42:34;2.20;99.90
3478;DHT22;37937;61.490;23.506;2024-02-26T13:45:00;2.30;99.90
3478;DHT22;37937;61.490;23.506;2024-02-26T13:47:26;2.30;99.90
3478;DHT22;37937;61.490;23.506;2024-02-26T13:49:51;2.20;99.90
3478;DHT22;37937;61.490;23.506;2024-02-26T13:52:17;2.20;99.90
3478;DHT22;37937;61.490;23.506;2024-02-26T13:54:43;2.10;99.90
3478;DHT22;37937;61.490;23.506;2024-02-26T13:57:08;2.10;99.90
3478;DHT22;37937;61.490;23.506;2024-02-26T13:59:34;2.20;99.90
3478;DHT22;37937;61.490;23.506;2024-02-26T14:02:00;2.20;99.90
3478;DHT22;37937;61.490;23.506;2024-02-26T14:04:25;2.20;99.90
3478;DHT22;37937;61.490;23.506;2024-02-26T14:06:51;2.20;99.90
3478;DHT22;37937;61.490;23.506;2024-02-26T14:09:16;2.20;99.90
3478;DHT22;37937;61.490;23.506;2024-02-26T14:11:47;2.20;99.90
3478;DHT22;37937;61.490;23.506;2024-02-26T14:14:13;2.20;99.90
3478;DHT22;37937;61.490;23.506;2024-02-26T14:16:39;2.10;99.90
3478;DHT22;37937;61.490;23.506;2024-02-26T14:19:04;2.10;99.90
3478;DHT22;37937;61.490;23.506;2024-02-26T14:21:30;2.00;99.90
3478;DHT22;37937;61.490;23.506;2024-02-26T14:23:55;2.10;99.90
3478;DHT22;37937;61.490;23.506;2024-02-26T14:26:24;2.10;99.90
3478;DHT22;37937;61.490;23.506;2024-02-26T14:28:50;2.10;99.90
3478;DHT22;37937;61.490;23.506;2024-02-26T14:31:18;2.00;99.90
3478;DHT22;37937;61.490;23.506;2024-02-26T14:33:44;2.00;99.90
3478;DHT22;37937;61.490;23.506;2024-02-26T14:36:10;1.90;99.90
3478;DHT22;37937;61.490;23.506;2024-02-26T14:38:36;1.90;99.90
3478;DHT22;37937;61.490;23.506;2024-02-26T14:41:02;1.90;99.90
3478;DHT22;37937;61.490;23.506;2024-02-26T14:43:28;1.90;99.90
3478;DHT22;37937;61.490;23.506;2024-02-26T14:45:53;1.90;99.90
3478;DHT22;37937;61.490;23.506;2024-02-26T14:48:19;1.90;99.90
3478;DHT22;37937;61.490;23.506;2024-02-26T14:50:44;1.90;99.90
3478;DHT22;37937;61.490;23.506;2024-02-26T14:53:10;1.90;99.90
3478;DHT22;37937;61.490;23.506;2024-02-26T14:55:35;1.90;99.90
3478;DHT22;37937;61.490;23.506;2024-02-26T14:58:01;1.90;99.90
3478;DHT22;37937;61.490;23.506;2024-02-26T15:00:26;1.80;99.90
3478;DHT22;37937;61.490;23.506;2024-02-26T15:02:52;1.80;99.90
3478;DHT22;37937;61.490;23.506;2024-02-26T15:05:19;1.80;99.90
3478;DHT22;37937;61.490;23.506;2024-02-26T15:07:45;1.80;99.90
3478;DHT22;37937;61.490;23.506;2024-02-26T15:10:11;1.90;99.90
3478;DHT22;37937;61.490;23.506;2024-02-26T15:12:36;1.90;99.90
3478;DHT22;37937;61.490;23.506;2024-02-26T15:15:02;1.90;99.90
3478;DHT22;37937;61.490;23.506;2024-02-26T15:17:28;1.90;99.90
3478;DHT22;37937;61.490;23.506;2024-02-26T15:19:54;1.90;99.90
3478;DHT22;37937;61.490;23.506;2024-02-26T15:22:22;1.80;99.90
3478;DHT22;37937;61.490;23.506;2024-02-26T15:24:48;1.80;99.90
3478;DHT22;37937;61.490;23.506;2024-02-26T15:27:13;1.80;99.90
3478;DHT22;37937;61.490;23.506;2024-02-26T15:29:39;1.70;99.90
3478;DHT22;37937;61.490;23.506;2024-02-26T15:32:04;1.70;99.90
3478;DHT22;37937;61.490;23.506;2024-02-26T15:34:30;1.70;99.90
3478;DHT22;37937;61.490;23.506;2024-02-26T15:36:56;1.70;99.90
3478;DHT22;37937;61.490;23.506;2024-02-26T15:39:21;1.70;99.90
3478;DHT22;37937;61.490;23.506;2024-02-26T15:41:47;1.70;99.90
3478;DHT22;37937;61.490;23.506;2024-02-26T15:44:12;1.70;99.90